createdAt,value
2019-02-10T00:00:44.690Z,2.17
2019-02-10T00:03:13.192Z,2.20
2019-02-10T00:05:41.645Z,2.37
2019-02-10T00:08:10.157Z,1.70
2019-02-10T00:10:38.616Z,2.37
2019-02-10T00:13:26.079Z,2.00
2019-02-10T00:15:55.124Z,2.20
2019-02-10T00:18:24.294Z,2.63
2019-02-10T00:20:52.757Z,2.00
2019-02-10T00:23:21.266Z,1.87
2019-02-10T00:25:49.729Z,1.67
2019-02-10T00:28:18.265Z,2.00
2019-02-10T00:30:46.739Z,2.73
2019-02-10T00:33:15.204Z,2.30
2019-02-10T00:35:43.701Z,1.83
2019-02-10T00:38:12.136Z,1.87
2019-02-10T00:40:40.622Z,2.53
2019-02-10T00:43:09.076Z,2.23
2019-02-10T00:45:37.558Z,2.00
2019-02-10T00:48:06.100Z,2.50
2019-02-10T00:50:34.581Z,2.17
2019-02-10T00:53:03.032Z,2.13
2019-02-10T00:55:31.509Z,2.03
2019-02-10T00:57:59.966Z,2.20
2019-02-10T01:00:28.444Z,2.03
2019-02-10T01:02:56.949Z,2.30
2019-02-10T01:05:25.436Z,3.03
2019-02-10T01:07:53.996Z,2.27
2019-02-10T01:10:25.342Z,1.73
2019-02-10T01:12:53.862Z,3.03
2019-02-10T01:15:22.336Z,2.40
2019-02-10T01:17:50.810Z,2.30
2019-02-10T01:20:19.355Z,2.43
2019-02-10T01:22:47.814Z,2.07
2019-02-10T01:25:16.368Z,2.27
2019-02-10T01:27:44.822Z,2.37
2019-02-10T01:30:15.248Z,2.33
2019-02-10T01:32:43.832Z,2.20
2019-02-10T01:35:12.499Z,2.20
2019-02-10T01:37:40.999Z,2.83
2019-02-10T01:40:11.044Z,2.53
2019-02-10T01:42:39.491Z,2.30
2019-02-10T01:45:10.798Z,2.13
2019-02-10T01:47:39.324Z,2.30
2019-02-10T01:50:10.272Z,2.37
2019-02-10T01:52:38.783Z,2.43
2019-02-10T01:55:12.557Z,2.13
2019-02-10T01:57:41.015Z,2.43
2019-02-10T02:00:12.412Z,2.30
2019-02-10T02:02:40.886Z,2.47
2019-02-10T02:05:09.627Z,2.23
2019-02-10T02:07:38.084Z,2.30
2019-02-10T02:10:12.489Z,1.93
2019-02-10T02:12:41.220Z,2.13
2019-02-10T02:15:12.762Z,2.27
2019-02-10T02:17:41.282Z,2.80
2019-02-10T02:20:11.298Z,2.47
2019-02-10T02:22:39.749Z,2.43
2019-02-10T02:25:11.278Z,2.20
2019-02-10T02:27:39.811Z,2.73
2019-02-10T02:30:10.912Z,2.57
2019-02-10T02:32:39.366Z,2.63
2019-02-10T02:35:07.929Z,2.20
2019-02-10T02:37:36.372Z,2.53
2019-02-10T02:40:07.096Z,2.40
2019-02-10T02:42:35.553Z,2.23
2019-02-10T02:45:04.612Z,2.43
2019-02-10T02:47:33.065Z,2.00
2019-02-10T02:50:01.541Z,2.23
2019-02-10T02:52:29.990Z,2.23
2019-02-10T02:54:58.484Z,2.60
2019-02-10T02:57:26.952Z,2.53
2019-02-10T02:59:55.445Z,2.53
2019-02-10T03:02:23.918Z,2.70
2019-02-10T03:04:52.368Z,2.47
2019-02-10T03:07:20.866Z,2.30
2019-02-10T03:09:49.340Z,2.47
2019-02-10T03:12:17.806Z,2.50
2019-02-10T03:14:46.262Z,2.33
2019-02-10T03:17:14.773Z,2.47
2019-02-10T03:19:43.233Z,3.00
2019-02-10T03:22:11.734Z,5.17
2019-02-10T03:24:40.197Z,3.67
2019-02-10T03:27:08.697Z,2.50
2019-02-10T03:29:37.163Z,2.73
2019-02-10T03:32:05.781Z,2.30
2019-02-10T03:34:34.291Z,2.97
2019-02-10T03:37:02.781Z,2.20
2019-02-10T03:39:31.239Z,2.90
2019-02-10T03:41:59.752Z,2.63
2019-02-10T03:44:28.196Z,3.00
2019-02-10T03:46:56.698Z,1.87
2019-02-10T03:49:25.134Z,2.07
2019-02-10T03:51:53.645Z,2.10
2019-02-10T03:54:22.173Z,2.03
2019-02-10T03:56:50.649Z,2.13
2019-02-10T03:59:19.117Z,2.53
2019-02-10T04:01:47.697Z,2.63
2019-02-10T04:04:16.160Z,2.40
2019-02-10T04:06:46.300Z,2.27
2019-02-10T04:09:14.776Z,2.10
2019-02-10T04:11:43.255Z,2.73
2019-02-10T04:14:11.733Z,2.57
2019-02-10T04:16:40.214Z,2.50
2019-02-10T04:19:08.679Z,2.10
2019-02-10T04:21:37.165Z,2.40
2019-02-10T04:24:05.655Z,2.57
2019-02-10T04:26:34.139Z,2.20
2019-02-10T04:29:02.592Z,2.33
2019-02-10T04:31:31.076Z,2.40
2019-02-10T04:33:59.547Z,2.50
2019-02-10T04:36:28.028Z,2.30
2019-02-10T04:38:56.480Z,2.50
2019-02-10T04:41:24.959Z,2.50
2019-02-10T04:43:53.423Z,2.27
2019-02-10T04:46:21.913Z,2.20
2019-02-10T04:48:50.385Z,2.40
2019-02-10T04:51:18.852Z,1.90
2019-02-10T04:53:47.296Z,2.00
2019-02-10T04:56:16.907Z,2.30
2019-02-10T04:58:45.386Z,2.10
2019-02-10T05:01:13.879Z,2.40
2019-02-10T05:03:42.353Z,2.90
2019-02-10T05:06:10.833Z,2.07
2019-02-10T05:08:39.277Z,2.40
2019-02-10T05:11:07.803Z,2.20
2019-02-10T05:13:36.298Z,2.33
2019-02-10T05:16:04.779Z,2.60
2019-02-10T05:18:33.245Z,1.87
2019-02-10T05:21:01.689Z,2.00
2019-02-10T05:23:30.166Z,2.20
2019-02-10T05:25:58.649Z,2.73
2019-02-10T05:28:27.131Z,2.30
2019-02-10T05:30:55.658Z,2.47
2019-02-10T05:33:24.142Z,2.47
2019-02-10T05:35:52.615Z,2.40
2019-02-10T05:38:21.113Z,2.63
2019-02-10T05:40:49.575Z,2.23
2019-02-10T05:43:18.065Z,2.30
2019-02-10T05:45:46.513Z,2.37
2019-02-10T05:48:14.982Z,2.20
2019-02-10T05:50:43.439Z,2.10
2019-02-10T05:53:11.918Z,2.43
2019-02-10T05:55:40.374Z,2.63
2019-02-10T05:58:08.867Z,2.13
2019-02-10T06:00:37.328Z,2.57
2019-02-10T06:03:05.808Z,2.33
2019-02-10T06:05:34.280Z,2.40
2019-02-10T06:08:02.756Z,2.47
2019-02-10T06:10:31.217Z,2.63
2019-02-10T06:12:59.702Z,2.77
2019-02-10T06:15:28.167Z,2.83
2019-02-10T06:17:56.653Z,2.47
2019-02-10T06:20:25.112Z,2.33
2019-02-10T06:22:53.590Z,2.30
2019-02-10T06:25:22.052Z,2.00
2019-02-10T06:27:50.577Z,2.80
2019-02-10T06:30:19.150Z,2.87
2019-02-10T06:32:47.586Z,2.40
2019-02-10T06:35:16.043Z,2.80
2019-02-10T06:37:45.097Z,2.30
2019-02-10T06:40:13.599Z,2.60
2019-02-10T06:42:42.108Z,2.30
2019-02-10T06:45:11.329Z,2.53
2019-02-10T06:47:39.809Z,2.60
2019-02-10T06:50:08.803Z,2.60
2019-02-10T06:52:37.283Z,2.47
2019-02-10T06:55:08.377Z,2.80
2019-02-10T06:57:36.874Z,2.70
2019-02-10T07:00:16.664Z,2.33
2019-02-10T07:03:21.352Z,2.50
2019-02-10T07:05:49.818Z,2.30
2019-02-10T07:08:18.313Z,2.13
2019-02-10T07:10:46.781Z,2.63
2019-02-10T07:13:18.313Z,2.43
2019-02-10T07:16:23.075Z,2.77
2019-02-10T07:19:28.118Z,2.77
2019-02-10T07:21:56.639Z,2.80
2019-02-10T07:24:47.000Z,3.27
2019-02-10T07:27:18.654Z,2.90
2019-02-10T07:30:05.185Z,2.50
2019-02-10T07:32:42.561Z,2.90
2019-02-10T07:35:29.153Z,3.10
2019-02-10T07:38:19.075Z,2.67
2019-02-10T07:40:59.492Z,2.87
2019-02-10T07:43:33.525Z,2.60
2019-02-10T07:46:24.624Z,3.57
2019-02-10T07:49:05.201Z,3.03
2019-02-10T07:51:39.342Z,2.17
2019-02-10T07:54:28.998Z,2.73
2019-02-10T07:57:00.498Z,2.73
2019-02-10T07:59:34.751Z,2.20
2019-02-10T08:02:27.234Z,2.37
2019-02-10T08:05:07.666Z,2.77
2019-02-10T08:08:07.259Z,2.90
2019-02-10T08:11:01.315Z,2.50
2019-02-10T08:13:38.498Z,2.77
2019-02-10T08:16:35.024Z,2.20
2019-02-10T08:19:21.706Z,2.53
2019-02-10T08:22:26.402Z,2.40
2019-02-10T08:25:00.597Z,2.57
2019-02-10T08:27:37.691Z,2.60
2019-02-10T08:30:33.089Z,3.63
2019-02-10T08:33:13.390Z,3.07
2019-02-10T08:35:44.947Z,2.60
2019-02-10T08:38:39.190Z,2.70
2019-02-10T08:41:33.294Z,3.00
2019-02-10T08:44:30.734Z,4.23
2019-02-10T08:47:04.895Z,2.70
2019-02-10T08:50:02.408Z,2.83
2019-02-10T08:52:42.804Z,2.70
2019-02-10T08:55:11.299Z,3.00
2019-02-10T08:57:39.760Z,2.83
2019-02-10T09:00:11.206Z,3.03
2019-02-10T09:02:39.666Z,2.27
2019-02-10T09:05:08.683Z,2.87
2019-02-10T09:07:37.142Z,2.50
2019-02-10T09:10:13.103Z,3.20
2019-02-10T09:12:41.553Z,2.40
2019-02-10T09:15:12.151Z,2.90
2019-02-10T09:17:40.639Z,2.77
2019-02-10T09:20:11.064Z,3.13
2019-02-10T09:22:39.531Z,3.73
2019-02-10T09:25:10.749Z,3.00
2019-02-10T09:27:39.249Z,2.33
2019-02-10T09:30:15.084Z,3.07
2019-02-10T09:32:43.534Z,2.77
2019-02-10T09:35:12.016Z,3.17
2019-02-10T09:37:40.522Z,3.07
2019-02-10T09:40:11.541Z,2.93
2019-02-10T09:42:39.995Z,3.07
2019-02-10T09:45:12.805Z,3.73
2019-02-10T09:47:41.265Z,3.23
2019-02-10T09:50:15.695Z,3.60
2019-02-10T09:52:44.153Z,3.90
2019-02-10T09:55:12.617Z,3.33
2019-02-10T09:57:41.100Z,3.20
2019-02-10T10:00:12.361Z,3.00
2019-02-10T10:02:40.846Z,3.17
2019-02-10T10:05:11.886Z,3.30
2019-02-10T10:07:40.439Z,2.80
2019-02-10T10:10:11.452Z,3.23
2019-02-10T10:12:39.947Z,3.27
2019-02-10T10:15:16.632Z,3.00
2019-02-10T10:17:45.113Z,3.17
2019-02-10T10:20:16.639Z,3.40
2019-02-10T10:22:45.118Z,2.77
2019-02-10T10:25:13.620Z,3.63
2019-02-10T10:27:42.081Z,3.33
2019-02-10T10:30:19.373Z,2.83
2019-02-10T10:32:47.851Z,2.87
2019-02-10T10:35:16.313Z,3.10
2019-02-10T10:37:44.812Z,3.10
2019-02-10T10:40:13.435Z,2.63
2019-02-10T10:42:41.928Z,3.13
2019-02-10T10:45:13.193Z,3.30
2019-02-10T10:47:41.684Z,3.10
2019-02-10T10:50:12.099Z,3.10
2019-02-10T10:52:40.588Z,3.30
2019-02-10T10:55:10.906Z,3.73
2019-02-10T10:57:39.413Z,3.63
2019-02-10T11:00:17.699Z,3.30
2019-02-10T11:02:46.181Z,3.20
2019-02-10T11:05:15.007Z,3.53
2019-02-10T11:07:43.609Z,3.47
2019-02-10T11:10:15.199Z,3.40
2019-02-10T11:12:43.678Z,3.27
2019-02-10T11:15:14.279Z,3.03
2019-02-10T11:17:42.762Z,3.17
2019-02-10T11:20:12.283Z,2.90
2019-02-10T11:22:40.769Z,2.90
2019-02-10T11:25:11.410Z,3.00
2019-02-10T11:27:39.893Z,2.53
2019-02-10T11:30:16.089Z,3.00
2019-02-10T11:32:44.564Z,3.00
2019-02-10T11:35:13.389Z,2.30
2019-02-10T11:37:41.871Z,2.17
2019-02-10T11:40:13.939Z,3.17
2019-02-10T11:42:42.423Z,2.80
2019-02-10T11:45:13.378Z,2.93
2019-02-10T11:47:41.871Z,3.17
2019-02-10T11:50:14.146Z,2.20
2019-02-10T11:52:42.642Z,2.70
2019-02-10T11:55:12.139Z,2.10
2019-02-10T11:57:40.620Z,2.60
2019-02-10T12:00:14.799Z,3.20
2019-02-10T12:02:43.332Z,3.07
2019-02-10T12:05:12.067Z,2.63
2019-02-10T12:07:40.548Z,2.93
2019-02-10T12:10:11.306Z,2.37
2019-02-10T12:12:39.785Z,2.57
2019-02-10T12:15:17.293Z,2.50
2019-02-10T12:17:45.762Z,2.03
2019-02-10T12:20:16.433Z,2.40
2019-02-10T12:22:50.328Z,2.53
2019-02-10T12:25:16.169Z,2.33
2019-02-10T12:27:45.435Z,2.33
2019-02-10T12:30:15.232Z,2.70
2019-02-10T12:32:43.792Z,2.37
2019-02-10T12:35:12.943Z,2.20
2019-02-10T12:37:41.430Z,2.30
2019-02-10T12:40:11.520Z,2.10
2019-02-10T12:42:40.024Z,2.03
2019-02-10T12:45:10.422Z,2.13
2019-02-10T12:47:38.904Z,2.00
2019-02-10T12:50:16.885Z,2.40
2019-02-10T12:52:45.342Z,2.07
2019-02-10T12:55:13.998Z,2.13
2019-02-10T12:57:42.509Z,2.20
2019-02-10T13:00:18.349Z,2.27
2019-02-10T13:02:46.831Z,2.20
2019-02-10T13:05:15.304Z,2.43
2019-02-10T13:07:43.781Z,2.20
2019-02-10T13:10:17.378Z,2.20
2019-02-10T13:12:44.955Z,2.30
2019-02-10T13:15:13.989Z,2.10
2019-02-10T13:17:42.434Z,2.20
2019-02-10T13:20:12.351Z,2.23
2019-02-10T13:22:40.813Z,2.00
2019-02-10T13:25:11.124Z,2.30
2019-02-10T13:27:39.568Z,2.20
2019-02-10T13:30:20.036Z,2.00
2019-02-10T13:32:48.474Z,2.20
2019-02-10T13:35:16.961Z,2.40
2019-02-10T13:37:45.428Z,1.93
2019-02-10T13:40:17.144Z,2.20
2019-02-10T13:42:45.851Z,2.17
2019-02-10T13:45:14.329Z,2.33
2019-02-10T13:47:42.804Z,2.13
2019-02-10T13:50:18.597Z,1.87
2019-02-10T13:52:47.122Z,1.83
2019-02-10T13:55:16.552Z,2.10
2019-02-10T13:57:45.005Z,2.53
2019-02-10T14:00:21.475Z,2.33
2019-02-10T14:02:49.917Z,1.77
2019-02-10T14:05:18.408Z,2.30
2019-02-10T14:07:46.862Z,2.13
2019-02-10T14:10:24.978Z,2.20
2019-02-10T14:12:47.511Z,2.27
2019-02-10T14:15:17.337Z,2.10
2019-02-10T14:17:45.787Z,2.17
2019-02-10T14:20:18.306Z,2.03
2019-02-10T14:22:46.766Z,2.10
2019-02-10T14:25:15.471Z,2.13
2019-02-10T14:27:43.943Z,2.33
2019-02-10T14:30:17.827Z,2.23
2019-02-10T14:32:46.283Z,2.23
2019-02-10T14:35:14.754Z,2.13
2019-02-10T14:37:43.192Z,3.00
2019-02-10T14:40:11.923Z,2.10
2019-02-10T14:42:40.373Z,2.03
2019-02-10T14:45:12.968Z,2.67
2019-02-10T14:47:41.696Z,2.37
2019-02-10T14:50:17.793Z,2.50
2019-02-10T14:52:46.241Z,2.10
2019-02-10T14:55:14.729Z,2.23
2019-02-10T14:57:43.194Z,2.70
2019-02-10T15:00:14.077Z,2.23
2019-02-10T15:02:42.525Z,2.87
2019-02-10T15:05:11.076Z,2.23
2019-02-10T15:07:39.630Z,2.20
2019-02-10T15:10:16.540Z,2.17
2019-02-10T15:12:44.992Z,2.00
2019-02-10T15:15:13.457Z,2.07
2019-02-10T15:17:41.918Z,2.50
2019-02-10T15:20:11.834Z,2.20
2019-02-10T15:22:40.352Z,2.30
2019-02-10T15:25:13.857Z,2.20
2019-02-10T15:27:42.391Z,2.77
2019-02-10T15:30:16.134Z,2.20
2019-02-10T15:32:44.581Z,2.80
2019-02-10T15:35:13.133Z,2.23
2019-02-10T15:37:41.574Z,2.43
2019-02-10T15:40:13.641Z,2.37
2019-02-10T15:42:42.107Z,2.20
2019-02-10T15:45:12.444Z,1.97
2019-02-10T15:47:40.894Z,2.80
2019-02-10T15:50:13.681Z,2.60
2019-02-10T15:52:42.134Z,2.30
2019-02-10T15:55:14.422Z,4.07
2019-02-10T15:57:42.881Z,2.77
2019-02-10T16:00:17.539Z,2.23
2019-02-10T16:02:45.989Z,3.20
2019-02-10T16:05:14.518Z,2.70
2019-02-10T16:07:43.024Z,2.80
2019-02-10T16:10:12.075Z,2.90
2019-02-10T16:12:40.694Z,2.57
2019-02-10T16:15:11.576Z,2.53
2019-02-10T16:17:40.029Z,2.60
2019-02-10T16:20:11.770Z,2.30
2019-02-10T16:22:40.255Z,2.73
2019-02-10T16:25:09.351Z,2.83
2019-02-10T16:27:37.830Z,2.50
2019-02-10T16:30:09.307Z,2.40
2019-02-10T16:32:37.768Z,2.60
2019-02-10T16:35:07.473Z,2.33
2019-02-10T16:37:35.956Z,2.47
2019-02-10T16:40:07.000Z,2.77
2019-02-10T16:42:35.476Z,2.70
2019-02-10T16:45:04.410Z,2.60
2019-02-10T16:47:32.913Z,2.43
2019-02-10T16:50:01.370Z,2.50
2019-02-10T16:52:29.853Z,2.57
2019-02-10T16:54:58.325Z,2.53
2019-02-10T16:57:26.784Z,2.57
2019-02-10T16:59:55.264Z,2.70
2019-02-10T17:02:23.741Z,2.77
2019-02-10T17:04:52.192Z,2.53
2019-02-10T17:07:20.683Z,2.53
2019-02-10T17:09:49.170Z,2.70
2019-02-10T17:12:17.667Z,2.53
2019-02-10T17:14:46.126Z,3.00
2019-02-10T17:17:14.637Z,2.70
2019-02-10T17:19:43.109Z,2.30
2019-02-10T17:22:11.601Z,2.60
2019-02-10T17:24:40.064Z,3.40
2019-02-10T17:27:08.565Z,2.67
2019-02-10T17:29:37.039Z,2.23
2019-02-10T17:32:05.526Z,2.30
2019-02-10T17:34:33.991Z,2.10
2019-02-10T17:37:02.524Z,2.40
2019-02-10T17:39:30.999Z,2.53
2019-02-10T17:41:59.485Z,2.13
2019-02-10T17:44:27.927Z,2.20
2019-02-10T17:46:56.413Z,1.90
2019-02-10T17:49:24.891Z,1.90
2019-02-10T17:51:53.373Z,1.90
2019-02-10T17:54:21.827Z,1.70
2019-02-10T17:56:50.302Z,1.90
2019-02-10T17:59:18.783Z,1.80
2019-02-10T18:01:47.303Z,2.27
2019-02-10T18:04:15.779Z,1.80
2019-02-10T18:06:44.266Z,1.83
2019-02-10T18:09:12.746Z,1.90
2019-02-10T18:11:41.202Z,1.80
2019-02-10T18:14:11.325Z,2.00
2019-02-10T18:16:44.410Z,1.77
2019-02-10T18:19:17.296Z,1.80
2019-02-10T18:21:47.399Z,1.87
2019-02-10T18:24:32.314Z,1.80
2019-02-10T18:27:18.874Z,1.77
2019-02-10T18:29:49.010Z,1.90
2019-02-10T18:32:19.112Z,1.80
2019-02-10T18:34:52.418Z,1.80
2019-02-10T18:37:34.803Z,2.30
2019-02-10T18:40:07.713Z,2.17
2019-02-10T18:42:49.580Z,2.93
2019-02-10T18:45:19.700Z,2.10
2019-02-10T18:47:49.793Z,1.93
2019-02-10T18:50:22.568Z,2.03
2019-02-10T18:52:52.683Z,2.00
2019-02-10T18:55:38.058Z,1.90
2019-02-10T18:58:10.916Z,1.90
2019-02-10T19:00:46.776Z,2.07
2019-02-10T19:03:16.908Z,2.23
2019-02-10T19:05:47.009Z,2.00
2019-02-10T19:08:32.185Z,2.40
2019-02-10T19:11:16.891Z,2.10
2019-02-10T19:13:49.964Z,1.80
2019-02-10T19:16:20.063Z,2.40
2019-02-10T19:19:04.934Z,1.83
2019-02-10T19:21:50.369Z,1.80
2019-02-10T19:24:20.503Z,1.30
2019-02-10T19:27:07.020Z,1.60
2019-02-10T19:29:52.196Z,1.80
2019-02-10T19:32:34.471Z,1.70
2019-02-10T19:35:13.603Z,1.50
2019-02-10T19:37:43.698Z,1.60
2019-02-10T19:40:16.519Z,1.50
2019-02-10T19:42:52.541Z,1.83
2019-02-10T19:45:38.735Z,1.50
2019-02-10T19:48:17.713Z,1.67
2019-02-10T19:50:47.887Z,2.00
2019-02-10T19:53:20.566Z,1.90
2019-02-10T19:55:53.452Z,1.90
2019-02-10T19:58:29.458Z,1.93
2019-02-10T20:00:59.571Z,2.23
2019-02-10T20:03:45.951Z,1.77
2019-02-10T20:06:16.092Z,5.07
2019-02-10T20:08:48.919Z,5.60
2019-02-10T20:11:19.025Z,7.73
2019-02-10T20:13:49.153Z,2.40
2019-02-10T20:16:19.262Z,1.97
2019-02-10T20:18:49.461Z,1.77
2019-02-10T20:21:22.605Z,1.77
2019-02-10T20:24:09.174Z,1.73
2019-02-10T20:26:57.326Z,1.50
2019-02-10T20:29:43.775Z,1.70
2019-02-10T20:32:13.898Z,1.33
2019-02-10T20:34:44.080Z,1.53
2019-02-10T20:37:20.283Z,1.23
2019-02-10T20:39:59.010Z,1.20
2019-02-10T20:42:29.102Z,1.30
2019-02-10T20:45:15.483Z,1.20
2019-02-10T20:47:48.243Z,1.30
2019-02-10T20:50:21.054Z,2.10
2019-02-10T20:52:57.070Z,1.37
2019-02-10T20:55:27.201Z,1.17
2019-02-10T20:58:00.017Z,1.20
2019-02-10T21:00:46.313Z,1.43
2019-02-10T21:03:16.413Z,1.40
2019-02-10T21:05:52.378Z,1.40
2019-02-10T21:08:34.228Z,1.10
2019-02-10T21:11:07.160Z,1.00
2019-02-10T21:13:46.546Z,1.00
2019-02-10T21:19:13.924Z,1.10
2019-02-10T21:21:59.334Z,0.93
2019-02-10T21:24:45.636Z,0.93
2019-02-10T21:27:27.712Z,1.10
2019-02-10T21:30:03.583Z,1.20
2019-02-10T21:32:49.552Z,0.93
2019-02-10T21:35:31.545Z,1.50
2019-02-10T21:38:07.377Z,0.90
2019-02-10T21:40:37.501Z,0.83
2019-02-10T21:43:07.600Z,0.70
2019-02-10T21:45:46.400Z,0.80
2019-02-10T21:48:17.541Z,0.87
2019-02-10T21:50:46.076Z,0.80
2019-02-10T21:53:14.529Z,0.80
2019-02-10T21:55:42.979Z,0.60
2019-02-10T21:58:11.466Z,0.70
2019-02-10T22:00:39.915Z,0.60
2019-02-10T22:03:08.398Z,0.60
2019-02-10T22:05:36.850Z,0.80
2019-02-10T22:08:05.336Z,0.60
2019-02-10T22:10:33.796Z,0.70
2019-02-10T22:13:02.285Z,0.60
2019-02-10T22:15:30.736Z,0.67
2019-02-10T22:17:59.223Z,0.70
2019-02-10T22:20:27.668Z,0.60
2019-02-10T22:22:56.149Z,0.53
2019-02-10T22:25:24.608Z,0.73
2019-02-10T22:27:53.133Z,0.50
2019-02-10T22:30:21.602Z,0.70
2019-02-10T22:32:50.129Z,0.80
2019-02-10T22:35:18.527Z,0.60
2019-02-10T22:37:47.019Z,0.60
2019-02-10T22:40:15.470Z,0.50
2019-02-10T22:42:45.947Z,0.40
2019-02-10T22:45:14.143Z,0.43
2019-02-10T22:47:42.632Z,0.70
2019-02-10T22:50:14.757Z,0.50
2019-02-10T22:52:43.281Z,0.40
2019-02-10T22:55:11.810Z,0.50
2019-02-10T22:57:41.238Z,0.50
2019-02-10T23:00:38.854Z,0.50
2019-02-10T23:03:07.516Z,0.37
2019-02-10T23:05:36.003Z,0.50
2019-02-10T23:08:04.557Z,0.40
2019-02-10T23:10:35.802Z,0.60
2019-02-10T23:13:04.282Z,0.40
2019-02-10T23:15:32.733Z,0.60
2019-02-10T23:18:01.221Z,0.43
2019-02-10T23:20:29.698Z,0.60
2019-02-10T23:22:58.154Z,0.63
2019-02-10T23:25:26.620Z,0.60
2019-02-10T23:27:55.072Z,0.40
2019-02-10T23:30:23.559Z,0.50
2019-02-10T23:32:52.005Z,0.50
2019-02-10T23:35:20.487Z,0.60
2019-02-10T23:37:48.951Z,0.50
2019-02-10T23:40:17.436Z,0.60
2019-02-10T23:42:45.885Z,0.60
2019-02-10T23:45:14.383Z,0.50
2019-02-10T23:47:42.823Z,0.53
2019-02-10T23:50:11.303Z,0.70
2019-02-10T23:52:39.788Z,0.63
2019-02-10T23:55:08.334Z,0.63
2019-02-10T23:57:36.778Z,0.60
